sensor_id;sensor_type;location;lat;lon;timestamp;temperature;humidity
69595;DHT22;56800;52.142;5.364;2023-11-19T00:01:33;13.90;89.90
69595;DHT22;56800;52.142;5.364;2023-11-19T00:04:00;13.90;89.80
69595;DHT22;56800;52.142;5.364;2023-11-19T00:06:27;13.90;89.80
69595;DHT22;56800;52.142;5.364;2023-11-19T00:08:54;13.90;89.80
69595;DHT22;56800;52.142;5.364;2023-11-19T00:11:21;13.80;89.80
69595;DHT22;56800;52.142;5.364;2023-11-19T00:13:47;13.90;89.80
69595;DHT22;56800;52.142;5.364;2023-11-19T00:16:14;13.80;89.80
69595;DHT22;56800;52.142;5.364;2023-11-19T00:18:43;13.90;89.70
69595;DHT22;56800;52.142;5.364;2023-11-19T00:21:10;13.90;89.70
69595;DHT22;56800;52.142;5.364;2023-11-19T00:23:37;13.90;89.60
69595;DHT22;56800;52.142;5.364;2023-11-19T00:26:04;13.80;89.50
69595;DHT22;56800;52.142;5.364;2023-11-19T00:28:33;13.90;89.50
69595;DHT22;56800;52.142;5.364;2023-11-19T00:31:00;13.90;89.50
69595;DHT22;56800;52.142;5.364;2023-11-19T00:33:27;13.90;89.50
69595;DHT22;56800;52.142;5.364;2023-11-19T00:35:54;13.90;89.40
69595;DHT22;56800;52.142;5.364;2023-11-19T00:38:22;13.80;89.10
69595;DHT22;56800;52.142;5.364;2023-11-19T00:40:49;13.80;89.30
69595;DHT22;56800;52.142;5.364;2023-11-19T00:43:15;13.80;89.20
69595;DHT22;56800;52.142;5.364;2023-11-19T00:45:42;13.80;89.30
69595;DHT22;56800;52.142;5.364;2023-11-19T00:48:09;13.80;89.40
69595;DHT22;56800;52.142;5.364;2023-11-19T00:50:36;13.80;89.30
69595;DHT22;56800;52.142;5.364;2023-11-19T00:53:04;13.80;89.20
69595;DHT22;56800;52.142;5.364;2023-11-19T00:55:31;13.90;89.30
69595;DHT22;56800;52.142;5.364;2023-11-19T00:57:58;13.90;89.50
69595;DHT22;56800;52.142;5.364;2023-11-19T01:00:25;13.90;89.20
69595;DHT22;56800;52.142;5.364;2023-11-19T01:02:54;13.80;89.20
69595;DHT22;56800;52.142;5.364;2023-11-19T01:05:21;13.80;89.20
69595;DHT22;56800;52.142;5.364;2023-11-19T01:07:49;13.80;89.10
69595;DHT22;56800;52.142;5.364;2023-11-19T01:10:16;13.90;89.20
69595;DHT22;56800;52.142;5.364;2023-11-19T01:12:45;13.90;89.10
69595;DHT22;56800;52.142;5.364;2023-11-19T01:15:12;13.90;89.00
69595;DHT22;56800;52.142;5.364;2023-11-19T01:17:39;13.90;88.90
69595;DHT22;56800;52.142;5.364;2023-11-19T01:20:18;13.90;88.90
69595;DHT22;56800;52.142;5.364;2023-11-19T01:22:46;13.90;88.80
69595;DHT22;56800;52.142;5.364;2023-11-19T01:25:15;13.90;88.80
69595;DHT22;56800;52.142;5.364;2023-11-19T01:27:42;13.90;88.80
69595;DHT22;56800;52.142;5.364;2023-11-19T01:30:09;13.80;88.70
69595;DHT22;56800;52.142;5.364;2023-11-19T01:32:39;13.90;88.70
69595;DHT22;56800;52.142;5.364;2023-11-19T01:35:07;13.90;88.70
69595;DHT22;56800;52.142;5.364;2023-11-19T01:37:37;13.90;88.60
69595;DHT22;56800;52.142;5.364;2023-11-19T01:40:04;13.80;88.40
69595;DHT22;56800;52.142;5.364;2023-11-19T01:42:40;13.80;88.40
69595;DHT22;56800;52.142;5.364;2023-11-19T01:45:07;13.90;88.60
69595;DHT22;56800;52.142;5.364;2023-11-19T01:47:36;13.90;88.50
69595;DHT22;56800;52.142;5.364;2023-11-19T01:50:06;13.90;88.40
69595;DHT22;56800;52.142;5.364;2023-11-19T01:52:34;13.80;88.30
69595;DHT22;56800;52.142;5.364;2023-11-19T01:55:06;13.80;88.30
69595;DHT22;56800;52.142;5.364;2023-11-19T01:57:34;13.80;88.30
69595;DHT22;56800;52.142;5.364;2023-11-19T02:00:01;13.80;88.20
69595;DHT22;56800;52.142;5.364;2023-11-19T02:02:29;13.80;88.20
69595;DHT22;56800;52.142;5.364;2023-11-19T02:04:57;13.80;88.10
69595;DHT22;56800;52.142;5.364;2023-11-19T02:07:24;13.80;87.90
69595;DHT22;56800;52.142;5.364;2023-11-19T02:09:51;13.70;87.70
69595;DHT22;56800;52.142;5.364;2023-11-19T02:12:17;13.80;87.60
69595;DHT22;56800;52.142;5.364;2023-11-19T02:14:44;13.70;87.70
69595;DHT22;56800;52.142;5.364;2023-11-19T02:17:27;13.70;87.70
69595;DHT22;56800;52.142;5.364;2023-11-19T02:19:54;13.60;87.50
69595;DHT22;56800;52.142;5.364;2023-11-19T02:22:21;13.60;87.40
69595;DHT22;56800;52.142;5.364;2023-11-19T02:24:51;13.60;87.30
69595;DHT22;56800;52.142;5.364;2023-11-19T02:28:10;13.60;87.30
69595;DHT22;56800;52.142;5.364;2023-11-19T02:30:11;13.50;87.20
69595;DHT22;56800;52.142;5.364;2023-11-19T02:32:41;13.50;87.10
69595;DHT22;56800;52.142;5.364;2023-11-19T02:35:08;13.40;87.90
69595;DHT22;56800;52.142;5.364;2023-11-19T02:37:35;13.40;87.20
69595;DHT22;56800;52.142;5.364;2023-11-19T02:40:02;13.40;87.10
69595;DHT22;56800;52.142;5.364;2023-11-19T02:42:30;13.30;87.00
69595;DHT22;56800;52.142;5.364;2023-11-19T02:44:57;13.30;87.10
69595;DHT22;56800;52.142;5.364;2023-11-19T02:47:25;13.30;87.10
69595;DHT22;56800;52.142;5.364;2023-11-19T02:49:52;13.30;87.00
69595;DHT22;56800;52.142;5.364;2023-11-19T02:52:19;13.20;87.00
69595;DHT22;56800;52.142;5.364;2023-11-19T02:54:46;13.20;87.00
69595;DHT22;56800;52.142;5.364;2023-11-19T02:57:13;13.20;87.00
69595;DHT22;56800;52.142;5.364;2023-11-19T02:59:48;13.20;87.00
69595;DHT22;56800;52.142;5.364;2023-11-19T03:02:15;13.20;87.00
69595;DHT22;56800;52.142;5.364;2023-11-19T03:04:42;13.10;86.90
69595;DHT22;56800;52.142;5.364;2023-11-19T03:07:10;13.10;86.80
69595;DHT22;56800;52.142;5.364;2023-11-19T03:09:37;13.10;86.60
69595;DHT22;56800;52.142;5.364;2023-11-19T03:12:07;13.10;86.70
69595;DHT22;56800;52.142;5.364;2023-11-19T03:14:33;13.10;86.60
69595;DHT22;56800;52.142;5.364;2023-11-19T03:17:03;13.00;86.50
69595;DHT22;56800;52.142;5.364;2023-11-19T03:19:31;13.00;86.50
69595;DHT22;56800;52.142;5.364;2023-11-19T03:21:58;13.00;86.40
69595;DHT22;56800;52.142;5.364;2023-11-19T03:24:26;13.00;86.50
69595;DHT22;56800;52.142;5.364;2023-11-19T03:26:53;12.90;86.40
69595;DHT22;56800;52.142;5.364;2023-11-19T03:29:19;12.90;86.40
69595;DHT22;56800;52.142;5.364;2023-11-19T03:31:46;12.90;86.30
69595;DHT22;56800;52.142;5.364;2023-11-19T03:34:13;12.90;86.30
69595;DHT22;56800;52.142;5.364;2023-11-19T03:36:39;12.80;86.20
69595;DHT22;56800;52.142;5.364;2023-11-19T03:39:06;12.80;86.30
69595;DHT22;56800;52.142;5.364;2023-11-19T03:41:33;12.80;86.20
69595;DHT22;56800;52.142;5.364;2023-11-19T03:44:03;12.70;86.20
69595;DHT22;56800;52.142;5.364;2023-11-19T03:46:29;12.70;86.20
69595;DHT22;56800;52.142;5.364;2023-11-19T03:48:57;12.70;86.10
69595;DHT22;56800;52.142;5.364;2023-11-19T03:51:23;12.70;86.20
69595;DHT22;56800;52.142;5.364;2023-11-19T03:53:50;12.70;86.10
69595;DHT22;56800;52.142;5.364;2023-11-19T03:56:17;12.60;86.00
69595;DHT22;56800;52.142;5.364;2023-11-19T03:58:44;12.60;86.00
69595;DHT22;56800;52.142;5.364;2023-11-19T04:01:13;12.60;86.00
69595;DHT22;56800;52.142;5.364;2023-11-19T04:03:41;12.50;85.90
69595;DHT22;56800;52.142;5.364;2023-11-19T04:06:10;12.50;85.90
69595;DHT22;56800;52.142;5.364;2023-11-19T04:08:37;12.50;85.90
69595;DHT22;56800;52.142;5.364;2023-11-19T04:11:04;12.40;86.00
69595;DHT22;56800;52.142;5.364;2023-11-19T04:13:31;12.50;86.00
69595;DHT22;56800;52.142;5.364;2023-11-19T04:15:59;12.40;85.90
69595;DHT22;56800;52.142;5.364;2023-11-19T04:18:26;12.40;86.00
69595;DHT22;56800;52.142;5.364;2023-11-19T04:20:52;12.40;86.00
69595;DHT22;56800;52.142;5.364;2023-11-19T04:23:19;12.40;86.00
69595;DHT22;56800;52.142;5.364;2023-11-19T04:25:45;12.30;85.90
69595;DHT22;56800;52.142;5.364;2023-11-19T04:28:12;12.30;86.00
69595;DHT22;56800;52.142;5.364;2023-11-19T04:30:39;12.30;86.10
69595;DHT22;56800;52.142;5.364;2023-11-19T04:33:06;12.30;86.00
69595;DHT22;56800;52.142;5.364;2023-11-19T04:35:32;12.30;85.90
69595;DHT22;56800;52.142;5.364;2023-11-19T04:37:59;12.30;86.00
69595;DHT22;56800;52.142;5.364;2023-11-19T04:40:26;12.30;86.00
69595;DHT22;56800;52.142;5.364;2023-11-19T04:42:53;12.20;85.90
69595;DHT22;56800;52.142;5.364;2023-11-19T04:45:19;12.20;85.90
69595;DHT22;56800;52.142;5.364;2023-11-19T04:47:46;12.20;85.90
69595;DHT22;56800;52.142;5.364;2023-11-19T04:50:13;12.20;85.80
69595;DHT22;56800;52.142;5.364;2023-11-19T04:52:40;12.20;85.90
69595;DHT22;56800;52.142;5.364;2023-11-19T04:55:07;12.20;85.80
69595;DHT22;56800;52.142;5.364;2023-11-19T04:57:34;12.20;85.80
69595;DHT22;56800;52.142;5.364;2023-11-19T05:00:00;12.20;85.80
69595;DHT22;56800;52.142;5.364;2023-11-19T05:02:27;12.20;85.80
69595;DHT22;56800;52.142;5.364;2023-11-19T05:04:54;12.10;85.70
69595;DHT22;56800;52.142;5.364;2023-11-19T05:07:21;12.10;85.70
69595;DHT22;56800;52.142;5.364;2023-11-19T05:09:47;12.10;85.60
69595;DHT22;56800;52.142;5.364;2023-11-19T05:12:14;12.10;85.70
69595;DHT22;56800;52.142;5.364;2023-11-19T05:14:41;12.10;85.70
69595;DHT22;56800;52.142;5.364;2023-11-19T05:17:15;12.00;85.70
69595;DHT22;56800;52.142;5.364;2023-11-19T05:19:42;12.00;85.70
69595;DHT22;56800;52.142;5.364;2023-11-19T05:22:08;12.00;85.60
69595;DHT22;56800;52.142;5.364;2023-11-19T05:24:35;12.00;85.60
69595;DHT22;56800;52.142;5.364;2023-11-19T05:27:02;12.00;85.50
69595;DHT22;56800;52.142;5.364;2023-11-19T05:29:29;12.00;85.50
69595;DHT22;56800;52.142;5.364;2023-11-19T05:31:56;12.00;85.40
69595;DHT22;56800;52.142;5.364;2023-11-19T05:34:22;12.00;85.40
69595;DHT22;56800;52.142;5.364;2023-11-19T05:36:49;11.90;85.30
69595;DHT22;56800;52.142;5.364;2023-11-19T05:39:16;11.90;85.30
69595;DHT22;56800;52.142;5.364;2023-11-19T05:41:46;11.90;85.10
69595;DHT22;56800;52.142;5.364;2023-11-19T05:44:12;11.90;85.10
69595;DHT22;56800;52.142;5.364;2023-11-19T05:46:39;11.80;85.10
69595;DHT22;56800;52.142;5.364;2023-11-19T05:49:10;11.80;85.00
69595;DHT22;56800;52.142;5.364;2023-11-19T05:51:37;11.90;85.10
69595;DHT22;56800;52.142;5.364;2023-11-19T05:54:08;11.80;85.00
69595;DHT22;56800;52.142;5.364;2023-11-19T05:56:36;11.80;85.00
69595;DHT22;56800;52.142;5.364;2023-11-19T05:59:03;11.80;85.00
69595;DHT22;56800;52.142;5.364;2023-11-19T06:01:34;11.80;85.00
69595;DHT22;56800;52.142;5.364;2023-11-19T06:04:01;11.70;85.00
69595;DHT22;56800;52.142;5.364;2023-11-19T06:06:28;11.70;85.00
69595;DHT22;56800;52.142;5.364;2023-11-19T06:08:55;11.70;85.20
69595;DHT22;56800;52.142;5.364;2023-11-19T06:11:22;11.70;85.30
69595;DHT22;56800;52.142;5.364;2023-11-19T06:13:49;11.70;85.30
69595;DHT22;56800;52.142;5.364;2023-11-19T06:16:18;11.70;85.20
69595;DHT22;56800;52.142;5.364;2023-11-19T06:18:45;11.70;85.20
69595;DHT22;56800;52.142;5.364;2023-11-19T06:21:12;11.70;85.30
69595;DHT22;56800;52.142;5.364;2023-11-19T06:23:39;11.70;86.10
69595;DHT22;56800;52.142;5.364;2023-11-19T06:26:06;11.70;85.30
69595;DHT22;56800;52.142;5.364;2023-11-19T06:28:32;11.70;85.30
69595;DHT22;56800;52.142;5.364;2023-11-19T06:30:59;11.70;85.40
69595;DHT22;56800;52.142;5.364;2023-11-19T06:33:26;11.70;85.30
69595;DHT22;56800;52.142;5.364;2023-11-19T06:35:53;11.70;85.20
69595;DHT22;56800;52.142;5.364;2023-11-19T06:38:21;11.70;85.20
69595;DHT22;56800;52.142;5.364;2023-11-19T06:40:48;11.70;85.10
69595;DHT22;56800;52.142;5.364;2023-11-19T06:43:19;11.70;85.20
69595;DHT22;56800;52.142;5.364;2023-11-19T06:45:46;11.70;85.10
69595;DHT22;56800;52.142;5.364;2023-11-19T06:48:12;11.70;85.10
69595;DHT22;56800;52.142;5.364;2023-11-19T06:50:39;11.70;85.10
69595;DHT22;56800;52.142;5.364;2023-11-19T06:53:06;11.60;85.10
69595;DHT22;56800;52.142;5.364;2023-11-19T06:55:36;11.70;85.10
69595;DHT22;56800;52.142;5.364;2023-11-19T06:58:03;11.60;85.00
69595;DHT22;56800;52.142;5.364;2023-11-19T07:00:30;11.60;85.00
69595;DHT22;56800;52.142;5.364;2023-11-19T07:02:59;11.60;85.10
69595;DHT22;56800;52.142;5.364;2023-11-19T07:05:27;11.60;85.10
69595;DHT22;56800;52.142;5.364;2023-11-19T07:07:54;11.70;85.20
69595;DHT22;56800;52.142;5.364;2023-11-19T07:10:22;11.60;85.10
69595;DHT22;56800;52.142;5.364;2023-11-19T07:12:48;11.70;85.50
69595;DHT22;56800;52.142;5.364;2023-11-19T07:15:16;11.70;85.10
69595;DHT22;56800;52.142;5.364;2023-11-19T07:17:44;11.70;85.10
69595;DHT22;56800;52.142;5.364;2023-11-19T07:20:12;11.70;85.00
69595;DHT22;56800;52.142;5.364;2023-11-19T07:22:44;11.70;85.00
69595;DHT22;56800;52.142;5.364;2023-11-19T07:25:15;11.70;85.00
69595;DHT22;56800;52.142;5.364;2023-11-19T07:27:42;11.70;84.90
69595;DHT22;56800;52.142;5.364;2023-11-19T07:30:09;11.70;85.00
69595;DHT22;56800;52.142;5.364;2023-11-19T07:32:36;11.70;85.00
69595;DHT22;56800;52.142;5.364;2023-11-19T07:35:05;11.70;85.00
69595;DHT22;56800;52.142;5.364;2023-11-19T07:37:32;11.70;85.10
69595;DHT22;56800;52.142;5.364;2023-11-19T07:39:59;11.70;85.00
69595;DHT22;56800;52.142;5.364;2023-11-19T07:42:26;11.70;85.00
69595;DHT22;56800;52.142;5.364;2023-11-19T07:44:52;11.70;85.00
69595;DHT22;56800;52.142;5.364;2023-11-19T07:47:21;11.80;85.00
69595;DHT22;56800;52.142;5.364;2023-11-19T07:49:53;11.80;84.90
69595;DHT22;56800;52.142;5.364;2023-11-19T07:52:20;11.80;84.80
69595;DHT22;56800;52.142;5.364;2023-11-19T07:54:47;11.80;84.70
69595;DHT22;56800;52.142;5.364;2023-11-19T07:57:14;11.90;84.80
69595;DHT22;56800;52.142;5.364;2023-11-19T07:59:41;11.90;84.60
69595;DHT22;56800;52.142;5.364;2023-11-19T08:02:08;11.80;84.70
69595;DHT22;56800;52.142;5.364;2023-11-19T08:04:35;11.90;84.80
69595;DHT22;56800;52.142;5.364;2023-11-19T08:07:02;11.90;84.70
69595;DHT22;56800;52.142;5.364;2023-11-19T08:09:29;11.90;84.70
69595;DHT22;56800;52.142;5.364;2023-11-19T08:11:56;12.00;84.90
69595;DHT22;56800;52.142;5.364;2023-11-19T08:14:23;12.00;84.90
69595;DHT22;56800;52.142;5.364;2023-11-19T08:16:50;12.10;84.70
69595;DHT22;56800;52.142;5.364;2023-11-19T08:19:17;12.10;84.60
69595;DHT22;56800;52.142;5.364;2023-11-19T08:21:44;12.10;84.60
69595;DHT22;56800;52.142;5.364;2023-11-19T08:24:11;12.20;84.70
69595;DHT22;56800;52.142;5.364;2023-11-19T08:26:37;12.20;84.60
69595;DHT22;56800;52.142;5.364;2023-11-19T08:29:05;12.20;84.40
69595;DHT22;56800;52.142;5.364;2023-11-19T08:31:31;12.20;84.40
69595;DHT22;56800;52.142;5.364;2023-11-19T08:33:58;12.20;84.70
69595;DHT22;56800;52.142;5.364;2023-11-19T08:36:25;12.30;84.60
69595;DHT22;56800;52.142;5.364;2023-11-19T08:38:51;12.30;84.50
69595;DHT22;56800;52.142;5.364;2023-11-19T08:41:18;12.30;84.50
69595;DHT22;56800;52.142;5.364;2023-11-19T08:43:45;12.40;84.60
69595;DHT22;56800;52.142;5.364;2023-11-19T08:46:12;12.40;84.60
69595;DHT22;56800;52.142;5.364;2023-11-19T08:48:40;12.50;84.50
69595;DHT22;56800;52.142;5.364;2023-11-19T08:51:07;12.50;84.40
69595;DHT22;56800;52.142;5.364;2023-11-19T08:53:34;12.50;84.00
69595;DHT22;56800;52.142;5.364;2023-11-19T08:56:01;12.50;83.70
69595;DHT22;56800;52.142;5.364;2023-11-19T08:58:29;12.50;83.60
69595;DHT22;56800;52.142;5.364;2023-11-19T09:00:57;12.50;83.60
69595;DHT22;56800;52.142;5.364;2023-11-19T09:03:24;12.50;84.00
69595;DHT22;56800;52.142;5.364;2023-11-19T09:05:53;12.50;83.90
69595;DHT22;56800;52.142;5.364;2023-11-19T09:08:20;12.60;83.90
69595;DHT22;56800;52.142;5.364;2023-11-19T09:10:47;12.60;83.60
69595;DHT22;56800;52.142;5.364;2023-11-19T09:13:13;12.70;83.60
69595;DHT22;56800;52.142;5.364;2023-11-19T09:15:40;12.70;83.50
69595;DHT22;56800;52.142;5.364;2023-11-19T09:18:08;12.70;83.50
69595;DHT22;56800;52.142;5.364;2023-11-19T09:20:36;12.70;83.50
69595;DHT22;56800;52.142;5.364;2023-11-19T09:23:05;12.70;83.20
69595;DHT22;56800;52.142;5.364;2023-11-19T09:25:33;12.70;83.00
69595;DHT22;56800;52.142;5.364;2023-11-19T09:28:02;12.70;83.00
69595;DHT22;56800;52.142;5.364;2023-11-19T09:30:29;12.70;83.00
69595;DHT22;56800;52.142;5.364;2023-11-19T09:32:56;12.70;83.20
69595;DHT22;56800;52.142;5.364;2023-11-19T09:35:23;12.70;83.00
69595;DHT22;56800;52.142;5.364;2023-11-19T09:37:50;12.70;83.00
69595;DHT22;56800;52.142;5.364;2023-11-19T09:40:16;12.70;83.10
69595;DHT22;56800;52.142;5.364;2023-11-19T09:42:44;12.70;83.30
69595;DHT22;56800;52.142;5.364;2023-11-19T09:45:16;12.80;83.40
69595;DHT22;56800;52.142;5.364;2023-11-19T09:47:44;12.90;83.10
69595;DHT22;56800;52.142;5.364;2023-11-19T09:50:17;12.90;82.90
69595;DHT22;56800;52.142;5.364;2023-11-19T09:52:46;12.90;82.60
69595;DHT22;56800;52.142;5.364;2023-11-19T09:55:13;12.90;82.40
69595;DHT22;56800;52.142;5.364;2023-11-19T09:57:41;12.90;82.40
69595;DHT22;56800;52.142;5.364;2023-11-19T10:00:13;13.00;82.50
69595;DHT22;56800;52.142;5.364;2023-11-19T10:02:43;13.00;82.50
69595;DHT22;56800;52.142;5.364;2023-11-19T10:05:14;13.00;82.50
69595;DHT22;56800;52.142;5.364;2023-11-19T10:07:42;13.00;82.70
69595;DHT22;56800;52.142;5.364;2023-11-19T10:10:09;13.10;82.30
69595;DHT22;56800;52.142;5.364;2023-11-19T10:12:40;13.10;82.00
69595;DHT22;56800;52.142;5.364;2023-11-19T10:15:24;13.10;81.90
69595;DHT22;56800;52.142;5.364;2023-11-19T10:17:51;13.10;81.90
69595;DHT22;56800;52.142;5.364;2023-11-19T10:20:18;13.10;82.00
69595;DHT22;56800;52.142;5.364;2023-11-19T10:22:45;13.20;81.80
69595;DHT22;56800;52.142;5.364;2023-11-19T10:25:23;13.30;82.40
69595;DHT22;56800;52.142;5.364;2023-11-19T10:27:51;13.40;81.80
69595;DHT22;56800;52.142;5.364;2023-11-19T10:30:25;13.50;81.40
69595;DHT22;56800;52.142;5.364;2023-11-19T10:33:10;13.50;81.40
69595;DHT22;56800;52.142;5.364;2023-11-19T10:35:57;13.60;80.80
69595;DHT22;56800;52.142;5.364;2023-11-19T10:38:27;13.70;81.00
69595;DHT22;56800;52.142;5.364;2023-11-19T10:40:54;13.80;81.60
69595;DHT22;56800;52.142;5.364;2023-11-19T10:43:22;14.00;81.10
69595;DHT22;56800;52.142;5.364;2023-11-19T10:45:50;14.10;80.80
69595;DHT22;56800;52.142;5.364;2023-11-19T10:48:16;14.20;80.50
69595;DHT22;56800;52.142;5.364;2023-11-19T10:50:44;14.20;79.90
69595;DHT22;56800;52.142;5.364;2023-11-19T10:53:12;14.30;80.00
69595;DHT22;56800;52.142;5.364;2023-11-19T10:55:39;14.40;79.80
69595;DHT22;56800;52.142;5.364;2023-11-19T10:58:08;14.40;79.20
69595;DHT22;56800;52.142;5.364;2023-11-19T11:00:47;14.50;79.10
69595;DHT22;56800;52.142;5.364;2023-11-19T11:03:19;14.60;79.20
69595;DHT22;56800;52.142;5.364;2023-11-19T11:05:47;14.70;78.90
69595;DHT22;56800;52.142;5.364;2023-11-19T11:08:15;14.70;78.30
69595;DHT22;56800;52.142;5.364;2023-11-19T11:10:52;14.70;78.30
69595;DHT22;56800;52.142;5.364;2023-11-19T11:13:24;14.70;78.40
69595;DHT22;56800;52.142;5.364;2023-11-19T11:15:52;14.70;77.90
69595;DHT22;56800;52.142;5.364;2023-11-19T11:18:21;14.80;78.10
69595;DHT22;56800;52.142;5.364;2023-11-19T11:20:49;14.80;77.90
69595;DHT22;56800;52.142;5.364;2023-11-19T11:26:39;14.90;76.80
69595;DHT22;56800;52.142;5.364;2023-11-19T11:32:28;14.70;76.60
69595;DHT22;56800;52.142;5.364;2023-11-19T11:35:28;14.70;76.80
69595;DHT22;56800;52.142;5.364;2023-11-19T11:38:06;14.70;76.60
69595;DHT22;56800;52.142;5.364;2023-11-19T11:40:34;14.70;76.60
69595;DHT22;56800;52.142;5.364;2023-11-19T11:43:01;14.60;76.10
69595;DHT22;56800;52.142;5.364;2023-11-19T11:45:54;14.60;76.40
69595;DHT22;56800;52.142;5.364;2023-11-19T11:48:22;14.60;76.90
69595;DHT22;56800;52.142;5.364;2023-11-19T11:50:54;14.70;77.00
69595;DHT22;56800;52.142;5.364;2023-11-19T11:53:23;14.70;76.80
69595;DHT22;56800;52.142;5.364;2023-11-19T11:58:18;14.60;76.80
69595;DHT22;56800;52.142;5.364;2023-11-19T12:00:46;14.60;76.70
69595;DHT22;56800;52.142;5.364;2023-11-19T12:03:14;14.50;77.00
69595;DHT22;56800;52.142;5.364;2023-11-19T12:05:42;14.50;77.10
69595;DHT22;56800;52.142;5.364;2023-11-19T12:08:14;14.50;76.90
69595;DHT22;56800;52.142;5.364;2023-11-19T12:13:15;14.40;76.90
69595;DHT22;56800;52.142;5.364;2023-11-19T12:18:27;14.40;77.10
69595;DHT22;56800;52.142;5.364;2023-11-19T12:20:55;14.30;77.30
69595;DHT22;56800;52.142;5.364;2023-11-19T12:23:25;14.40;77.50
69595;DHT22;56800;52.142;5.364;2023-11-19T12:25:52;14.40;77.30
69595;DHT22;56800;52.142;5.364;2023-11-19T12:28:19;14.40;77.00
69595;DHT22;56800;52.142;5.364;2023-11-19T12:30:45;14.30;77.00
69595;DHT22;56800;52.142;5.364;2023-11-19T12:33:13;14.30;77.30
69595;DHT22;56800;52.142;5.364;2023-11-19T12:35:45;14.20;77.60
69595;DHT22;56800;52.142;5.364;2023-11-19T12:38:25;14.30;77.30
69595;DHT22;56800;52.142;5.364;2023-11-19T12:41:08;14.20;77.20
69595;DHT22;56800;52.142;5.364;2023-11-19T12:43:38;14.20;77.20
69595;DHT22;56800;52.142;5.364;2023-11-19T12:46:20;14.10;77.40
69595;DHT22;56800;52.142;5.364;2023-11-19T12:48:48;14.10;77.30
69595;DHT22;56800;52.142;5.364;2023-11-19T12:51:16;14.10;77.50
69595;DHT22;56800;52.142;5.364;2023-11-19T12:53:52;14.10;77.50
69595;DHT22;56800;52.142;5.364;2023-11-19T12:56:25;14.10;77.40
69595;DHT22;56800;52.142;5.364;2023-11-19T12:58:52;14.10;77.40
69595;DHT22;56800;52.142;5.364;2023-11-19T13:01:20;14.10;77.40
69595;DHT22;56800;52.142;5.364;2023-11-19T13:03:47;14.00;77.20
69595;DHT22;56800;52.142;5.364;2023-11-19T13:06:15;14.00;77.40
69595;DHT22;56800;52.142;5.364;2023-11-19T13:08:43;14.00;77.40
69595;DHT22;56800;52.142;5.364;2023-11-19T13:11:12;14.00;77.50
69595;DHT22;56800;52.142;5.364;2023-11-19T13:13:59;14.00;77.50
69595;DHT22;56800;52.142;5.364;2023-11-19T13:16:27;14.00;77.40
69595;DHT22;56800;52.142;5.364;2023-11-19T13:18:54;14.00;78.30
69595;DHT22;56800;52.142;5.364;2023-11-19T13:21:21;14.00;77.60
69595;DHT22;56800;52.142;5.364;2023-11-19T13:23:48;14.00;77.70
69595;DHT22;56800;52.142;5.364;2023-11-19T13:26:15;13.90;77.50
69595;DHT22;56800;52.142;5.364;2023-11-19T13:28:42;14.00;77.60
69595;DHT22;56800;52.142;5.364;2023-11-19T13:31:08;14.00;77.80
69595;DHT22;56800;52.142;5.364;2023-11-19T13:33:37;13.90;77.80
69595;DHT22;56800;52.142;5.364;2023-11-19T13:36:04;14.00;77.80
69595;DHT22;56800;52.142;5.364;2023-11-19T13:38:35;14.00;77.90
69595;DHT22;56800;52.142;5.364;2023-11-19T13:41:03;14.00;78.00
69595;DHT22;56800;52.142;5.364;2023-11-19T13:43:31;14.00;78.10
69595;DHT22;56800;52.142;5.364;2023-11-19T13:45:57;14.10;78.20
69595;DHT22;56800;52.142;5.364;2023-11-19T13:48:25;14.10;78.10
69595;DHT22;56800;52.142;5.364;2023-11-19T13:50:53;14.10;78.00
69595;DHT22;56800;52.142;5.364;2023-11-19T13:53:20;14.10;77.80
69595;DHT22;56800;52.142;5.364;2023-11-19T13:55:47;14.10;77.80
69595;DHT22;56800;52.142;5.364;2023-11-19T13:58:14;14.10;77.90
69595;DHT22;56800;52.142;5.364;2023-11-19T14:00:41;14.10;78.00
69595;DHT22;56800;52.142;5.364;2023-11-19T14:03:09;14.00;77.70
69595;DHT22;56800;52.142;5.364;2023-11-19T14:05:39;14.10;77.90
69595;DHT22;56800;52.142;5.364;2023-11-19T14:08:08;14.00;77.90
69595;DHT22;56800;52.142;5.364;2023-11-19T14:10:51;13.90;77.90
69595;DHT22;56800;52.142;5.364;2023-11-19T14:13:17;13.90;78.00
69595;DHT22;56800;52.142;5.364;2023-11-19T14:15:44;13.90;78.00
69595;DHT22;56800;52.142;5.364;2023-11-19T14:18:15;13.90;78.10
69595;DHT22;56800;52.142;5.364;2023-11-19T14:20:42;13.90;78.30
69595;DHT22;56800;52.142;5.364;2023-11-19T14:23:09;13.80;78.40
69595;DHT22;56800;52.142;5.364;2023-11-19T14:25:36;13.80;78.50
69595;DHT22;56800;52.142;5.364;2023-11-19T14:28:02;13.90;78.60
69595;DHT22;56800;52.142;5.364;2023-11-19T14:30:32;13.80;78.60
69595;DHT22;56800;52.142;5.364;2023-11-19T14:32:58;13.80;78.70
69595;DHT22;56800;52.142;5.364;2023-11-19T14:35:26;13.80;78.80
69595;DHT22;56800;52.142;5.364;2023-11-19T14:37:52;13.70;78.90
69595;DHT22;56800;52.142;5.364;2023-11-19T14:40:19;13.70;79.10
69595;DHT22;56800;52.142;5.364;2023-11-19T14:42:46;13.60;79.10
69595;DHT22;56800;52.142;5.364;2023-11-19T14:45:13;13.60;79.20
69595;DHT22;56800;52.142;5.364;2023-11-19T14:47:40;13.60;79.20
69595;DHT22;56800;52.142;5.364;2023-11-19T14:50:07;13.60;79.20
69595;DHT22;56800;52.142;5.364;2023-11-19T14:52:35;13.60;79.10
69595;DHT22;56800;52.142;5.364;2023-11-19T14:55:03;13.50;79.00
69595;DHT22;56800;52.142;5.364;2023-11-19T14:57:30;13.50;78.90
69595;DHT22;56800;52.142;5.364;2023-11-19T14:59:57;13.50;78.80
69595;DHT22;56800;52.142;5.364;2023-11-19T15:02:24;13.50;78.70
69595;DHT22;56800;52.142;5.364;2023-11-19T15:04:51;13.50;78.70
69595;DHT22;56800;52.142;5.364;2023-11-19T15:07:18;13.50;78.80
69595;DHT22;56800;52.142;5.364;2023-11-19T15:09:44;13.50;78.80
69595;DHT22;56800;52.142;5.364;2023-11-19T15:12:12;13.50;78.80
69595;DHT22;56800;52.142;5.364;2023-11-19T15:14:38;13.40;78.70
69595;DHT22;56800;52.142;5.364;2023-11-19T15:17:05;13.40;78.70
69595;DHT22;56800;52.142;5.364;2023-11-19T15:19:33;13.40;78.70
69595;DHT22;56800;52.142;5.364;2023-11-19T15:22:00;13.40;78.70
69595;DHT22;56800;52.142;5.364;2023-11-19T15:24:31;13.40;78.70
69595;DHT22;56800;52.142;5.364;2023-11-19T15:26:58;13.40;78.60
69595;DHT22;56800;52.142;5.364;2023-11-19T15:29:27;13.40;78.60
69595;DHT22;56800;52.142;5.364;2023-11-19T15:31:55;13.40;78.60
69595;DHT22;56800;52.142;5.364;2023-11-19T15:34:21;13.40;78.60
69595;DHT22;56800;52.142;5.364;2023-11-19T15:36:48;13.40;78.60
69595;DHT22;56800;52.142;5.364;2023-11-19T15:39:15;13.40;78.60
69595;DHT22;56800;52.142;5.364;2023-11-19T15:41:42;13.40;78.60
69595;DHT22;56800;52.142;5.364;2023-11-19T15:44:08;13.30;78.50
69595;DHT22;56800;52.142;5.364;2023-11-19T15:46:35;13.40;78.50
69595;DHT22;56800;52.142;5.364;2023-11-19T15:49:02;13.30;78.50
69595;DHT22;56800;52.142;5.364;2023-11-19T15:51:29;13.30;78.60